sensor_id;sensor_type;location;lat;lon;timestamp;pressure;altitude;pressure_sealevel;temperature;humidity
64404;BME280;50726;54.912;-8.392;2023-02-18T00:01:25;100464.22;;;27.29;96.35
64404;BME280;50726;54.912;-8.392;2023-02-18T00:03:59;100445.78;;;27.91;94.84
64404;BME280;50726;54.912;-8.392;2023-02-18T00:06:29;100470.94;;;27.43;95.51
64404;BME280;50726;54.912;-8.392;2023-02-18T00:08:56;100477.88;;;27.08;96.70
64404;BME280;50726;54.912;-8.392;2023-02-18T00:11:24;100466.09;;;28.66;90.70
64404;BME280;50726;54.912;-8.392;2023-02-18T00:13:51;100448.06;;;26.44;97.02
64404;BME280;50726;54.912;-8.392;2023-02-18T00:16:17;100475.88;;;27.10;94.90
64404;BME280;50726;54.912;-8.392;2023-02-18T00:18:43;100497.56;;;26.20;95.89
64404;BME280;50726;54.912;-8.392;2023-02-18T00:21:09;100425.22;;;26.30;93.47
64404;BME280;50726;54.912;-8.392;2023-02-18T00:23:37;100474.13;;;26.71;92.16
64404;BME280;50726;54.912;-8.392;2023-02-18T00:26:12;100463.78;;;26.86;92.17
64404;BME280;50726;54.912;-8.392;2023-02-18T00:28:38;100466.34;;;26.09;96.62
64404;BME280;50726;54.912;-8.392;2023-02-18T00:31:12;100452.22;;;27.80;91.17
64404;BME280;50726;54.912;-8.392;2023-02-18T00:33:39;100491.69;;;27.79;91.08
64404;BME280;50726;54.912;-8.392;2023-02-18T00:36:08;100457.94;;;27.39;91.04
64404;BME280;50726;54.912;-8.392;2023-02-18T00:38:34;100499.91;;;27.12;90.06
64404;BME280;50726;54.912;-8.392;2023-02-18T00:41:00;100467.78;;;26.13;93.00
64404;BME280;50726;54.912;-8.392;2023-02-18T00:43:26;100505.03;;;28.35;87.50
64404;BME280;50726;54.912;-8.392;2023-02-18T00:45:51;100495.13;;;25.87;92.13
64404;BME280;50726;54.912;-8.392;2023-02-18T00:48:17;100491.94;;;26.52;92.29
64404;BME280;50726;54.912;-8.392;2023-02-18T00:50:43;100480.47;;;26.80;92.48
64404;BME280;50726;54.912;-8.392;2023-02-18T00:53:09;100505.44;;;27.00;91.50
64404;BME280;50726;54.912;-8.392;2023-02-18T00:55:43;100496.47;;;27.47;89.06
64404;BME280;50726;54.912;-8.392;2023-02-18T00:58:10;100510.63;;;27.12;87.97
64404;BME280;50726;54.912;-8.392;2023-02-18T01:00:36;100491.50;;;26.47;90.62
64404;BME280;50726;54.912;-8.392;2023-02-18T01:03:02;100513.91;;;26.76;90.90
64404;BME280;50726;54.912;-8.392;2023-02-18T01:05:28;100498.88;;;26.45;92.19
64404;BME280;50726;54.912;-8.392;2023-02-18T01:07:54;100517.16;;;26.20;91.05
64404;BME280;50726;54.912;-8.392;2023-02-18T01:10:20;100501.81;;;27.85;87.68
64404;BME280;50726;54.912;-8.392;2023-02-18T01:12:45;100511.50;;;27.40;88.98
64404;BME280;50726;54.912;-8.392;2023-02-18T01:15:14;100478.50;;;25.93;91.58
64404;BME280;50726;54.912;-8.392;2023-02-18T01:17:42;100522.84;;;26.57;90.93
64404;BME280;50726;54.912;-8.392;2023-02-18T01:20:09;100508.59;;;27.61;89.48
64404;BME280;50726;54.912;-8.392;2023-02-18T01:22:35;100520.97;;;26.77;86.66
64404;BME280;50726;54.912;-8.392;2023-02-18T01:25:02;100513.97;;;27.24;88.22
64404;BME280;50726;54.912;-8.392;2023-02-18T01:27:28;100529.59;;;28.04;84.56
64404;BME280;50726;54.912;-8.392;2023-02-18T01:29:53;100513.38;;;26.92;87.77
64404;BME280;50726;54.912;-8.392;2023-02-18T01:32:19;100527.19;;;26.77;88.42
64404;BME280;50726;54.912;-8.392;2023-02-18T01:34:46;100529.69;;;27.08;88.90
64404;BME280;50726;54.912;-8.392;2023-02-18T01:37:12;100521.28;;;27.31;89.22
64404;BME280;50726;54.912;-8.392;2023-02-18T01:39:38;100537.88;;;27.17;87.19
64404;BME280;50726;54.912;-8.392;2023-02-18T01:42:04;100542.03;;;26.91;87.01
64404;BME280;50726;54.912;-8.392;2023-02-18T01:44:33;100534.00;;;28.23;85.01
64404;BME280;50726;54.912;-8.392;2023-02-18T01:46:59;100549.38;;;26.40;87.01
64404;BME280;50726;54.912;-8.392;2023-02-18T01:49:28;100546.81;;;26.98;88.38
64404;BME280;50726;54.912;-8.392;2023-02-18T01:51:58;100532.44;;;26.49;88.67
64404;BME280;50726;54.912;-8.392;2023-02-18T01:54:33;100549.50;;;27.83;86.67
64404;BME280;50726;54.912;-8.392;2023-02-18T01:57:09;100551.19;;;27.84;83.93
64404;BME280;50726;54.912;-8.392;2023-02-18T01:59:42;100571.53;;;27.01;85.65
64404;BME280;50726;54.912;-8.392;2023-02-18T02:02:13;100547.91;;;27.53;84.24
64404;BME280;50726;54.912;-8.392;2023-02-18T02:04:40;100569.38;;;27.15;86.01
64404;BME280;50726;54.912;-8.392;2023-02-18T02:07:06;100560.97;;;27.38;84.04
64404;BME280;50726;54.912;-8.392;2023-02-18T02:09:33;100571.94;;;27.06;83.65
64404;BME280;50726;54.912;-8.392;2023-02-18T02:39:55;100594.94;;;27.77;79.51
64404;BME280;50726;54.912;-8.392;2023-02-18T02:42:39;100570.66;;;29.50;74.22
64404;BME280;50726;54.912;-8.392;2023-02-18T02:45:32;100588.63;;;28.42;77.23
64404;BME280;50726;54.912;-8.392;2023-02-18T02:53:32;100589.75;;;26.78;83.92
64404;BME280;50726;54.912;-8.392;2023-02-18T02:55:58;100599.63;;;26.77;81.47
64404;BME280;50726;54.912;-8.392;2023-02-18T02:58:24;100594.88;;;27.58;81.57
64404;BME280;50726;54.912;-8.392;2023-02-18T03:01:14;100596.94;;;29.03;75.45
64404;BME280;50726;54.912;-8.392;2023-02-18T03:04:12;100599.16;;;27.79;79.10
64404;BME280;50726;54.912;-8.392;2023-02-18T03:07:01;100582.69;;;27.64;80.71
64404;BME280;50726;54.912;-8.392;2023-02-18T03:09:54;100600.34;;;27.67;81.77
64404;BME280;50726;54.912;-8.392;2023-02-18T03:15:25;100575.44;;;26.18;85.90
64404;BME280;50726;54.912;-8.392;2023-02-18T03:18:09;100599.44;;;27.86;82.85
64404;BME280;50726;54.912;-8.392;2023-02-18T03:20:45;100579.75;;;27.85;81.32
64404;BME280;50726;54.912;-8.392;2023-02-18T03:23:18;100594.31;;;28.57;79.78
64404;BME280;50726;54.912;-8.392;2023-02-18T03:25:45;100580.16;;;26.65;81.96
64404;BME280;50726;54.912;-8.392;2023-02-18T03:28:15;100587.19;;;27.06;83.48
64404;BME280;50726;54.912;-8.392;2023-02-18T03:33:10;100594.44;;;27.53;81.14
64404;BME280;50726;54.912;-8.392;2023-02-18T03:35:40;100619.72;;;27.03;81.00
64404;BME280;50726;54.912;-8.392;2023-02-18T03:38:47;100607.81;;;27.25;81.38
64404;BME280;50726;54.912;-8.392;2023-02-18T03:41:15;100586.25;;;26.07;83.15
64404;BME280;50726;54.912;-8.392;2023-02-18T03:43:49;100597.09;;;27.15;82.56
64404;BME280;50726;54.912;-8.392;2023-02-18T03:46:16;100589.75;;;27.07;83.20
64404;BME280;50726;54.912;-8.392;2023-02-18T03:48:42;100608.09;;;26.43;83.59
64404;BME280;50726;54.912;-8.392;2023-02-18T03:51:08;100596.97;;;27.65;82.60
64404;BME280;50726;54.912;-8.392;2023-02-18T03:53:33;100576.41;;;26.17;84.71
64404;BME280;50726;54.912;-8.392;2023-02-18T03:55:59;100599.88;;;27.24;83.22
64404;BME280;50726;54.912;-8.392;2023-02-18T03:58:25;100611.78;;;27.79;80.16
64404;BME280;50726;54.912;-8.392;2023-02-18T04:00:50;100612.56;;;28.63;77.07
64404;BME280;50726;54.912;-8.392;2023-02-18T04:03:16;100609.38;;;28.50;78.38
64404;BME280;50726;54.912;-8.392;2023-02-18T04:05:42;100613.91;;;28.03;78.88
64404;BME280;50726;54.912;-8.392;2023-02-18T04:08:08;100608.09;;;27.22;82.02
64404;BME280;50726;54.912;-8.392;2023-02-18T04:10:33;100610.34;;;27.27;82.48
64404;BME280;50726;54.912;-8.392;2023-02-18T04:12:59;100598.41;;;27.59;79.84
64404;BME280;50726;54.912;-8.392;2023-02-18T04:15:24;100605.53;;;28.06;78.01
64404;BME280;50726;54.912;-8.392;2023-02-18T04:17:50;100597.50;;;27.20;82.41
64404;BME280;50726;54.912;-8.392;2023-02-18T04:20:16;100596.81;;;27.56;80.92
64404;BME280;50726;54.912;-8.392;2023-02-18T04:22:42;100604.25;;;27.34;80.74
64404;BME280;50726;54.912;-8.392;2023-02-18T04:25:08;100632.78;;;26.37;82.34
64404;BME280;50726;54.912;-8.392;2023-02-18T04:27:33;100618.53;;;26.86;83.68
64404;BME280;50726;54.912;-8.392;2023-02-18T04:29:59;100609.81;;;26.93;82.78
64404;BME280;50726;54.912;-8.392;2023-02-18T04:32:25;100618.84;;;26.12;84.63
64404;BME280;50726;54.912;-8.392;2023-02-18T04:34:50;100608.56;;;26.17;84.00
64404;BME280;50726;54.912;-8.392;2023-02-18T04:37:16;100615.31;;;27.12;82.25
64404;BME280;50726;54.912;-8.392;2023-02-18T04:39:42;100638.91;;;27.18;80.84
64404;BME280;50726;54.912;-8.392;2023-02-18T04:42:08;100636.50;;;27.82;80.43
64404;BME280;50726;54.912;-8.392;2023-02-18T04:44:35;100631.59;;;27.68;80.87
64404;BME280;50726;54.912;-8.392;2023-02-18T04:47:02;100627.72;;;27.80;79.18
64404;BME280;50726;54.912;-8.392;2023-02-18T04:49:28;100628.03;;;26.19;81.94
64404;BME280;50726;54.912;-8.392;2023-02-18T04:51:54;100639.56;;;27.40;80.04
64404;BME280;50726;54.912;-8.392;2023-02-18T04:54:19;100631.06;;;28.66;77.33
64404;BME280;50726;54.912;-8.392;2023-02-18T04:56:45;100634.09;;;27.21;79.61
64404;BME280;50726;54.912;-8.392;2023-02-18T04:59:11;100642.72;;;27.05;78.85
64404;BME280;50726;54.912;-8.392;2023-02-18T05:01:36;100646.34;;;27.44;78.82
64404;BME280;50726;54.912;-8.392;2023-02-18T05:04:02;100650.47;;;26.69;80.62
64404;BME280;50726;54.912;-8.392;2023-02-18T05:06:28;100651.81;;;27.72;77.73
64404;BME280;50726;54.912;-8.392;2023-02-18T05:08:54;100653.59;;;27.14;79.37
64404;BME280;50726;54.912;-8.392;2023-02-18T05:11:20;100663.00;;;26.39;81.02
64404;BME280;50726;54.912;-8.392;2023-02-18T05:13:45;100650.03;;;26.84;81.26
64404;BME280;50726;54.912;-8.392;2023-02-18T05:16:11;100649.59;;;26.59;82.50
64404;BME280;50726;54.912;-8.392;2023-02-18T05:18:38;100648.22;;;26.84;81.50
64404;BME280;50726;54.912;-8.392;2023-02-18T05:21:04;100667.13;;;26.83;81.44
64404;BME280;50726;54.912;-8.392;2023-02-18T05:23:30;100666.16;;;27.91;79.37
64404;BME280;50726;54.912;-8.392;2023-02-18T05:25:55;100659.75;;;27.64;77.89
64404;BME280;50726;54.912;-8.392;2023-02-18T05:28:21;100670.66;;;27.32;80.63
64404;BME280;50726;54.912;-8.392;2023-02-18T05:30:47;100662.78;;;27.88;78.76
64404;BME280;50726;54.912;-8.392;2023-02-18T05:33:13;100675.94;;;27.14;79.23
64404;BME280;50726;54.912;-8.392;2023-02-18T05:35:38;100666.91;;;26.96;81.09
64404;BME280;50726;54.912;-8.392;2023-02-18T05:38:04;100670.66;;;28.00;76.53
64404;BME280;50726;54.912;-8.392;2023-02-18T05:40:30;100677.16;;;28.35;75.95
64404;BME280;50726;54.912;-8.392;2023-02-18T05:42:56;100675.00;;;28.39;76.02
64404;BME280;50726;54.912;-8.392;2023-02-18T05:45:23;100675.41;;;28.62;74.02
64404;BME280;50726;54.912;-8.392;2023-02-18T05:47:48;100660.25;;;28.89;73.70
64404;BME280;50726;54.912;-8.392;2023-02-18T05:50:14;100667.63;;;29.77;71.52
64404;BME280;50726;54.912;-8.392;2023-02-18T05:52:40;100677.13;;;29.36;71.31
64404;BME280;50726;54.912;-8.392;2023-02-18T05:55:06;100678.09;;;28.90;70.90
64404;BME280;50726;54.912;-8.392;2023-02-18T05:57:31;100667.97;;;29.29;70.42
64404;BME280;50726;54.912;-8.392;2023-02-18T05:59:57;100674.91;;;28.77;70.29
64404;BME280;50726;54.912;-8.392;2023-02-18T06:02:23;100679.84;;;29.97;67.81
64404;BME280;50726;54.912;-8.392;2023-02-18T06:04:48;100677.38;;;28.24;71.51
64404;BME280;50726;54.912;-8.392;2023-02-18T06:07:14;100678.47;;;28.96;69.29
64404;BME280;50726;54.912;-8.392;2023-02-18T06:09:40;100682.69;;;29.16;68.61
64404;BME280;50726;54.912;-8.392;2023-02-18T06:12:06;100670.00;;;29.08;68.89
64404;BME280;50726;54.912;-8.392;2023-02-18T06:14:31;100682.44;;;28.27;69.43
64404;BME280;50726;54.912;-8.392;2023-02-18T06:16:57;100677.91;;;29.10;67.55
64404;BME280;50726;54.912;-8.392;2023-02-18T06:19:23;100680.91;;;28.71;70.29
64404;BME280;50726;54.912;-8.392;2023-02-18T06:21:48;100683.22;;;29.02;68.99
64404;BME280;50726;54.912;-8.392;2023-02-18T06:24:14;100685.03;;;28.47;68.67
64404;BME280;50726;54.912;-8.392;2023-02-18T06:26:40;100689.44;;;29.20;67.77
64404;BME280;50726;54.912;-8.392;2023-02-18T06:29:07;100681.56;;;30.41;67.15
64404;BME280;50726;54.912;-8.392;2023-02-18T06:31:33;100686.06;;;30.84;67.39
64404;BME280;50726;54.912;-8.392;2023-02-18T06:33:58;100688.34;;;29.50;68.25
64404;BME280;50726;54.912;-8.392;2023-02-18T06:36:24;100691.47;;;30.33;67.47
64404;BME280;50726;54.912;-8.392;2023-02-18T06:38:49;100686.31;;;28.43;70.96
64404;BME280;50726;54.912;-8.392;2023-02-18T06:41:16;100698.22;;;29.04;72.40
64404;BME280;50726;54.912;-8.392;2023-02-18T06:43:41;100692.94;;;28.20;74.73
64404;BME280;50726;54.912;-8.392;2023-02-18T06:46:07;100690.50;;;28.27;74.04
64404;BME280;50726;54.912;-8.392;2023-02-18T06:48:33;100703.38;;;27.85;74.72
64404;BME280;50726;54.912;-8.392;2023-02-18T06:50:59;100705.09;;;29.43;72.52
64404;BME280;50726;54.912;-8.392;2023-02-18T06:53:25;100708.66;;;27.57;74.53
64404;BME280;50726;54.912;-8.392;2023-02-18T06:55:51;100711.59;;;28.22;73.23
64404;BME280;50726;54.912;-8.392;2023-02-18T06:58:16;100706.38;;;27.82;75.46
64404;BME280;50726;54.912;-8.392;2023-02-18T07:00:42;100693.72;;;27.45;77.22
64404;BME280;50726;54.912;-8.392;2023-02-18T07:03:11;100697.97;;;29.34;72.85
64404;BME280;50726;54.912;-8.392;2023-02-18T07:05:37;100704.88;;;28.08;73.43
64404;BME280;50726;54.912;-8.392;2023-02-18T07:08:03;100722.38;;;27.64;75.74
64404;BME280;50726;54.912;-8.392;2023-02-18T07:10:29;100706.22;;;29.14;74.15
64404;BME280;50726;54.912;-8.392;2023-02-18T07:12:54;100707.66;;;29.27;70.87
64404;BME280;50726;54.912;-8.392;2023-02-18T07:15:20;100700.88;;;30.20;67.94
64404;BME280;50726;54.912;-8.392;2023-02-18T07:17:52;100709.31;;;29.19;73.43
64404;BME280;50726;54.912;-8.392;2023-02-18T07:20:19;100703.63;;;29.23;72.15
64404;BME280;50726;54.912;-8.392;2023-02-18T07:22:45;100692.19;;;28.74;71.77
64404;BME280;50726;54.912;-8.392;2023-02-18T07:25:12;100686.78;;;28.00;73.53
64404;BME280;50726;54.912;-8.392;2023-02-18T07:27:37;100700.91;;;30.28;69.40
64404;BME280;50726;54.912;-8.392;2023-02-18T07:30:04;100674.34;;;27.89;72.88
64404;BME280;50726;54.912;-8.392;2023-02-18T07:32:30;100701.56;;;28.52;72.47
64404;BME280;50726;54.912;-8.392;2023-02-18T07:34:56;100701.00;;;28.48;72.65
64404;BME280;50726;54.912;-8.392;2023-02-18T07:37:22;100690.34;;;28.75;71.79
64404;BME280;50726;54.912;-8.392;2023-02-18T07:39:48;100710.69;;;29.05;69.45
64404;BME280;50726;54.912;-8.392;2023-02-18T07:42:14;100709.47;;;29.00;71.87
64404;BME280;50726;54.912;-8.392;2023-02-18T07:44:40;100701.06;;;29.92;69.75
64404;BME280;50726;54.912;-8.392;2023-02-18T07:47:08;100684.63;;;28.60;70.49
64404;BME280;50726;54.912;-8.392;2023-02-18T07:49:35;100707.06;;;29.78;67.71
64404;BME280;50726;54.912;-8.392;2023-02-18T07:52:01;100701.53;;;30.14;65.04
64404;BME280;50726;54.912;-8.392;2023-02-18T07:54:27;100707.75;;;30.58;66.27
64404;BME280;50726;54.912;-8.392;2023-02-18T07:56:53;100710.59;;;31.32;64.01
64404;BME280;50726;54.912;-8.392;2023-02-18T07:59:19;100696.34;;;29.41;64.63
64404;BME280;50726;54.912;-8.392;2023-02-18T08:01:45;100722.97;;;30.24;63.99
64404;BME280;50726;54.912;-8.392;2023-02-18T08:04:11;100713.25;;;31.07;62.31
64404;BME280;50726;54.912;-8.392;2023-02-18T08:06:39;100719.84;;;29.76;63.90
64404;BME280;50726;54.912;-8.392;2023-02-18T08:09:06;100737.91;;;29.39;63.66
64404;BME280;50726;54.912;-8.392;2023-02-18T08:11:33;100723.09;;;28.70;65.56
64404;BME280;50726;54.912;-8.392;2023-02-18T08:13:59;100726.28;;;27.90;68.68
64404;BME280;50726;54.912;-8.392;2023-02-18T08:16:25;100733.56;;;27.50;70.07
64404;BME280;50726;54.912;-8.392;2023-02-18T08:18:51;100721.22;;;27.86;69.86
64404;BME280;50726;54.912;-8.392;2023-02-18T08:21:18;100721.38;;;27.65;73.60
64404;BME280;50726;54.912;-8.392;2023-02-18T08:23:45;100746.56;;;28.78;69.71
64404;BME280;50726;54.912;-8.392;2023-02-18T08:26:12;100740.91;;;28.15;71.21
64404;BME280;50726;54.912;-8.392;2023-02-18T08:28:38;100728.91;;;27.32;72.43
64404;BME280;50726;54.912;-8.392;2023-02-18T08:31:04;100713.88;;;26.90;73.57
64404;BME280;50726;54.912;-8.392;2023-02-18T08:33:30;100743.47;;;27.29;74.94
64404;BME280;50726;54.912;-8.392;2023-02-18T08:35:56;100750.25;;;27.63;73.29
64404;BME280;50726;54.912;-8.392;2023-02-18T08:38:23;100752.09;;;27.13;76.38
64404;BME280;50726;54.912;-8.392;2023-02-18T08:40:49;100740.06;;;27.47;75.75
64404;BME280;50726;54.912;-8.392;2023-02-18T08:43:16;100747.03;;;26.69;78.22
64404;BME280;50726;54.912;-8.392;2023-02-18T08:45:43;100772.38;;;25.93;79.95
64404;BME280;50726;54.912;-8.392;2023-02-18T08:48:10;100766.94;;;24.85;85.56
64404;BME280;50726;54.912;-8.392;2023-02-18T08:50:38;100770.84;;;25.25;81.75
64404;BME280;50726;54.912;-8.392;2023-02-18T08:53:03;100776.94;;;25.27;82.98
64404;BME280;50726;54.912;-8.392;2023-02-18T08:55:31;100771.69;;;27.83;77.64
64404;BME280;50726;54.912;-8.392;2023-02-18T08:57:57;100774.03;;;26.87;74.25
64404;BME280;50726;54.912;-8.392;2023-02-18T09:00:23;100766.78;;;27.19;76.61
64404;BME280;50726;54.912;-8.392;2023-02-18T09:02:49;100769.13;;;28.01;73.04
64404;BME280;50726;54.912;-8.392;2023-02-18T09:05:15;100775.00;;;28.90;72.40
64404;BME280;50726;54.912;-8.392;2023-02-18T09:07:40;100773.63;;;28.10;73.06
64404;BME280;50726;54.912;-8.392;2023-02-18T09:10:08;100752.38;;;27.59;73.26
64404;BME280;50726;54.912;-8.392;2023-02-18T09:12:34;100764.75;;;27.80;74.05
64404;BME280;50726;54.912;-8.392;2023-02-18T09:15:00;100782.22;;;26.35;76.48
64404;BME280;50726;54.912;-8.392;2023-02-18T09:17:27;100771.28;;;27.68;74.58
64404;BME280;50726;54.912;-8.392;2023-02-18T09:19:52;100777.94;;;27.34;74.09
64404;BME280;50726;54.912;-8.392;2023-02-18T09:22:18;100777.38;;;27.80;72.91
64404;BME280;50726;54.912;-8.392;2023-02-18T09:24:44;100777.97;;;27.64;74.61
64404;BME280;50726;54.912;-8.392;2023-02-18T09:27:10;100779.88;;;28.01;72.71
64404;BME280;50726;54.912;-8.392;2023-02-18T09:29:39;100775.16;;;28.51;73.25
64404;BME280;50726;54.912;-8.392;2023-02-18T09:32:06;100772.63;;;29.05;71.48
64404;BME280;50726;54.912;-8.392;2023-02-18T09:34:35;100778.50;;;27.38;74.82
64404;BME280;50726;54.912;-8.392;2023-02-18T09:37:01;100781.03;;;26.59;76.61
64404;BME280;50726;54.912;-8.392;2023-02-18T09:39:27;100763.06;;;27.99;72.73
64404;BME280;50726;54.912;-8.392;2023-02-18T09:42:04;100788.72;;;28.21;72.66
64404;BME280;50726;54.912;-8.392;2023-02-18T09:44:38;100786.13;;;27.32;76.11
64404;BME280;50726;54.912;-8.392;2023-02-18T09:47:32;100766.13;;;28.52;72.63
64404;BME280;50726;54.912;-8.392;2023-02-18T09:50:07;100763.66;;;28.21;73.10
64404;BME280;50726;54.912;-8.392;2023-02-18T09:52:37;100776.19;;;28.02;73.21
64404;BME280;50726;54.912;-8.392;2023-02-18T09:57:53;100787.28;;;28.65;73.27
64404;BME280;50726;54.912;-8.392;2023-02-18T10:00:24;100786.78;;;28.79;73.04
64404;BME280;50726;54.912;-8.392;2023-02-18T10:02:56;100795.91;;;29.69;71.81
64404;BME280;50726;54.912;-8.392;2023-02-18T10:05:23;100773.06;;;29.19;71.70
64404;BME280;50726;54.912;-8.392;2023-02-18T10:07:53;100778.06;;;28.67;74.23
64404;BME280;50726;54.912;-8.392;2023-02-18T10:10:30;100795.31;;;28.47;75.00
64404;BME280;50726;54.912;-8.392;2023-02-18T10:12:58;100794.34;;;27.60;75.83
64404;BME280;50726;54.912;-8.392;2023-02-18T10:15:28;100796.41;;;28.54;75.10
64404;BME280;50726;54.912;-8.392;2023-02-18T10:17:56;100787.44;;;28.91;73.33
64404;BME280;50726;54.912;-8.392;2023-02-18T10:20:25;100792.84;;;28.63;74.02
64404;BME280;50726;54.912;-8.392;2023-02-18T10:22:53;100784.00;;;27.06;76.10
64404;BME280;50726;54.912;-8.392;2023-02-18T10:25:22;100799.22;;;30.08;70.19
64404;BME280;50726;54.912;-8.392;2023-02-18T10:27:50;100802.47;;;28.84;72.32
64404;BME280;50726;54.912;-8.392;2023-02-18T10:32:54;100802.41;;;29.77;69.31
64404;BME280;50726;54.912;-8.392;2023-02-18T10:35:38;100801.88;;;30.52;68.95
64404;BME280;50726;54.912;-8.392;2023-02-18T10:41:13;100801.28;;;26.73;74.56
64404;BME280;50726;54.912;-8.392;2023-02-18T10:47:09;100789.75;;;28.86;72.10
64404;BME280;50726;54.912;-8.392;2023-02-18T10:52:25;100789.78;;;28.76;72.84
64404;BME280;50726;54.912;-8.392;2023-02-18T10:55:02;100790.28;;;30.07;70.24
64404;BME280;50726;54.912;-8.392;2023-02-18T10:57:32;100788.09;;;29.40;70.46
64404;BME280;50726;54.912;-8.392;2023-02-18T11:00:03;100798.94;;;29.12;69.40
64404;BME280;50726;54.912;-8.392;2023-02-18T11:02:40;100816.34;;;28.23;69.49
64404;BME280;50726;54.912;-8.392;2023-02-18T11:05:27;100786.47;;;30.10;68.98
64404;BME280;50726;54.912;-8.392;2023-02-18T11:07:56;100790.38;;;28.70;69.89
64404;BME280;50726;54.912;-8.392;2023-02-18T11:10:31;100803.78;;;29.08;69.30
64404;BME280;50726;54.912;-8.392;2023-02-18T11:13:13;100799.69;;;29.04;68.58
64404;BME280;50726;54.912;-8.392;2023-02-18T11:16:04;100793.25;;;29.33;69.64
64404;BME280;50726;54.912;-8.392;2023-02-18T11:18:38;100804.41;;;30.27;66.26
64404;BME280;50726;54.912;-8.392;2023-02-18T11:23:50;100791.31;;;30.33;67.61
64404;BME280;50726;54.912;-8.392;2023-02-18T11:26:37;100801.91;;;28.14;70.03
64404;BME280;50726;54.912;-8.392;2023-02-18T11:29:21;100801.31;;;29.69;67.99
64404;BME280;50726;54.912;-8.392;2023-02-18T11:31:50;100833.19;;;27.56;72.49
64404;BME280;50726;54.912;-8.392;2023-02-18T11:34:19;100793.78;;;27.47;74.18
64404;BME280;50726;54.912;-8.392;2023-02-18T11:36:47;100827.44;;;25.64;78.47
64404;BME280;50726;54.912;-8.392;2023-02-18T11:39:22;100792.63;;;27.20;79.55
64404;BME280;50726;54.912;-8.392;2023-02-18T11:44:34;100808.72;;;28.57;74.24
64404;BME280;50726;54.912;-8.392;2023-02-18T11:49:28;100806.06;;;27.50;74.79
64404;BME280;50726;54.912;-8.392;2023-02-18T11:52:12;100818.41;;;28.39;73.77
64404;BME280;50726;54.912;-8.392;2023-02-18T11:54:40;100825.66;;;26.60;75.97
64404;BME280;50726;54.912;-8.392;2023-02-18T11:57:10;100805.06;;;27.80;76.45
64404;BME280;50726;54.912;-8.392;2023-02-18T11:59:38;100788.66;;;27.04;78.11
64404;BME280;50726;54.912;-8.392;2023-02-18T12:04:50;100816.44;;;28.41;74.28
64404;BME280;50726;54.912;-8.392;2023-02-18T12:07:28;100811.59;;;27.87;75.77
64404;BME280;50726;54.912;-8.392;2023-02-18T12:09:59;100823.38;;;28.72;74.55
64404;BME280;50726;54.912;-8.392;2023-02-18T12:12:39;100804.28;;;27.60;77.10
64404;BME280;50726;54.912;-8.392;2023-02-18T12:15:08;100817.84;;;26.88;79.70
64404;BME280;50726;54.912;-8.392;2023-02-18T12:20:26;100823.44;;;27.16;78.06
64404;BME280;50726;54.912;-8.392;2023-02-18T12:26:04;100817.25;;;27.84;75.96
64404;BME280;50726;54.912;-8.392;2023-02-18T12:29:16;100819.13;;;28.41;75.96
64404;BME280;50726;54.912;-8.392;2023-02-18T12:56:14;100819.72;;;28.15;75.26
64404;BME280;50726;54.912;-8.392;2023-02-18T12:58:56;100810.09;;;28.99;73.51
64404;BME280;50726;54.912;-8.392;2023-02-18T13:04:39;100791.09;;;29.55;71.08
64404;BME280;50726;54.912;-8.392;2023-02-18T13:13:24;100794.59;;;27.97;76.91
64404;BME280;50726;54.912;-8.392;2023-02-18T13:15:55;100799.63;;;28.20;75.69
64404;BME280;50726;54.912;-8.392;2023-02-18T13:18:30;100787.00;;;29.14;74.17
64404;BME280;50726;54.912;-8.392;2023-02-18T13:21:08;100792.94;;;27.76;76.13
64404;BME280;50726;54.912;-8.392;2023-02-18T13:23:48;100798.47;;;28.32;76.25
64404;BME280;50726;54.912;-8.392;2023-02-18T13:26:17;100774.25;;;27.35;76.95
64404;BME280;50726;54.912;-8.392;2023-02-18T13:34:57;100804.53;;;27.47;77.52
64404;BME280;50726;54.912;-8.392;2023-02-18T13:40:25;100818.00;;;28.72;72.23
64404;BME280;50726;54.912;-8.392;2023-02-18T13:42:54;100815.22;;;27.07;73.64
64404;BME280;50726;54.912;-8.392;2023-02-18T13:45:40;100812.88;;;27.73;74.98
64404;BME280;50726;54.912;-8.392;2023-02-18T13:48:27;100819.44;;;28.19;74.69
64404;BME280;50726;54.912;-8.392;2023-02-18T13:51:01;100803.16;;;28.30;73.57
64404;BME280;50726;54.912;-8.392;2023-02-18T13:53:39;100812.50;;;28.26;75.01
64404;BME280;50726;54.912;-8.392;2023-02-18T13:56:22;100799.94;;;28.17;73.99
64404;BME280;50726;54.912;-8.392;2023-02-18T13:58:58;100817.84;;;27.58;76.28
64404;BME280;50726;54.912;-8.392;2023-02-18T14:04:05;100815.28;;;27.67;74.48
64404;BME280;50726;54.912;-8.392;2023-02-18T14:09:40;100816.53;;;27.53;74.85
64404;BME280;50726;54.912;-8.392;2023-02-18T14:15:00;100817.81;;;27.78;73.73
64404;BME280;50726;54.912;-8.392;2023-02-18T14:17:30;100818.78;;;28.54;72.02
64404;BME280;50726;54.912;-8.392;2023-02-18T14:22:44;100814.78;;;28.59;72.52
64404;BME280;50726;54.912;-8.392;2023-02-18T14:27:36;100838.47;;;28.83;71.57
64404;BME280;50726;54.912;-8.392;2023-02-18T14:30:17;100834.91;;;28.92;71.73
64404;BME280;50726;54.912;-8.392;2023-02-18T14:32:44;100828.88;;;28.43;71.79
64404;BME280;50726;54.912;-8.392;2023-02-18T14:38:39;100838.31;;;28.85;71.84
64404;BME280;50726;54.912;-8.392;2023-02-18T14:44:16;100808.63;;;29.04;71.96
64404;BME280;50726;54.912;-8.392;2023-02-18T14:51:55;100813.94;;;26.92;79.29
64404;BME280;50726;54.912;-8.392;2023-02-18T14:54:24;100811.72;;;27.96;76.48
64404;BME280;50726;54.912;-8.392;2023-02-18T14:57:02;100805.88;;;28.10;75.71
64404;BME280;50726;54.912;-8.392;2023-02-18T14:59:49;100802.09;;;27.24;78.82
64404;BME280;50726;54.912;-8.392;2023-02-18T15:02:25;100805.63;;;28.51;76.41
64404;BME280;50726;54.912;-8.392;2023-02-18T15:04:52;100818.66;;;27.29;76.89
64404;BME280;50726;54.912;-8.392;2023-02-18T15:07:21;100800.25;;;27.94;76.99
64404;BME280;50726;54.912;-8.392;2023-02-18T15:09:52;100798.13;;;27.97;77.88